sensor_id;sensor_type;location;lat;lon;timestamp;temperature;humidity
9414;DHT22;4746;35.664;139.738;2023-02-26T00:01:42;5.20;35.10
9414;DHT22;4746;35.664;139.738;2023-02-26T00:04:10;5.20;35.20
9414;DHT22;4746;35.664;139.738;2023-02-26T00:06:39;5.20;35.20
9414;DHT22;4746;35.664;139.738;2023-02-26T00:09:21;5.30;35.30
9414;DHT22;4746;35.664;139.738;2023-02-26T00:11:49;5.30;35.40
9414;DHT22;4746;35.664;139.738;2023-02-26T00:14:17;5.30;35.80
9414;DHT22;4746;35.664;139.738;2023-02-26T00:17:31;5.30;36.10
9414;DHT22;4746;35.664;139.738;2023-02-26T00:20:09;5.30;36.50
9414;DHT22;4746;35.664;139.738;2023-02-26T00:22:41;5.40;36.60
9414;DHT22;4746;35.664;139.738;2023-02-26T00:25:10;5.30;36.20
9414;DHT22;4746;35.664;139.738;2023-02-26T00:27:38;5.40;36.20
9414;DHT22;4746;35.664;139.738;2023-02-26T00:30:07;5.30;36.00
9414;DHT22;4746;35.664;139.738;2023-02-26T00:32:37;5.30;36.10
9414;DHT22;4746;35.664;139.738;2023-02-26T00:35:07;5.40;35.90
9414;DHT22;4746;35.664;139.738;2023-02-26T00:40:45;5.40;35.80
9414;DHT22;4746;35.664;139.738;2023-02-26T00:43:18;5.40;35.70
9414;DHT22;4746;35.664;139.738;2023-02-26T00:52:04;5.70;36.00
9414;DHT22;4746;35.664;139.738;2023-02-26T00:54:38;5.90;36.30
9414;DHT22;4746;35.664;139.738;2023-02-26T00:57:06;6.00;36.10
9414;DHT22;4746;35.664;139.738;2023-02-26T00:59:33;5.90;35.40
9414;DHT22;4746;35.664;139.738;2023-02-26T01:02:01;6.00;35.50
9414;DHT22;4746;35.664;139.738;2023-02-26T01:04:31;6.10;35.60
9414;DHT22;4746;35.664;139.738;2023-02-26T01:06:59;6.20;35.60
9414;DHT22;4746;35.664;139.738;2023-02-26T01:09:29;6.30;35.50
9414;DHT22;4746;35.664;139.738;2023-02-26T01:12:09;6.20;34.40
9414;DHT22;4746;35.664;139.738;2023-02-26T01:14:43;6.30;34.60
9414;DHT22;4746;35.664;139.738;2023-02-26T01:17:20;6.30;34.10
9414;DHT22;4746;35.664;139.738;2023-02-26T01:28:25;6.10;33.90
9414;DHT22;4746;35.664;139.738;2023-02-26T01:30:57;6.10;33.90
9414;DHT22;4746;35.664;139.738;2023-02-26T01:33:51;6.20;34.40
9414;DHT22;4746;35.664;139.738;2023-02-26T01:36:30;6.30;33.80
9414;DHT22;4746;35.664;139.738;2023-02-26T01:39:13;6.40;33.80
9414;DHT22;4746;35.664;139.738;2023-02-26T01:41:48;6.50;33.80
9414;DHT22;4746;35.664;139.738;2023-02-26T01:44:48;6.60;33.50
9414;DHT22;4746;35.664;139.738;2023-02-26T01:47:40;6.60;33.60
9414;DHT22;4746;35.664;139.738;2023-02-26T01:50:21;6.60;33.30
9414;DHT22;4746;35.664;139.738;2023-02-26T01:53:18;6.60;33.20
9414;DHT22;4746;35.664;139.738;2023-02-26T01:55:56;6.70;33.60
9414;DHT22;4746;35.664;139.738;2023-02-26T01:58:33;6.70;33.60
9414;DHT22;4746;35.664;139.738;2023-02-26T02:01:03;6.80;33.40
9414;DHT22;4746;35.664;139.738;2023-02-26T02:03:33;6.90;33.40
9414;DHT22;4746;35.664;139.738;2023-02-26T02:06:10;7.00;33.40
9414;DHT22;4746;35.664;139.738;2023-02-26T02:08:46;7.00;33.30
9414;DHT22;4746;35.664;139.738;2023-02-26T02:11:14;7.10;33.50
9414;DHT22;4746;35.664;139.738;2023-02-26T02:14:11;7.10;34.00
9414;DHT22;4746;35.664;139.738;2023-02-26T02:32:21;7.70;33.50
9414;DHT22;4746;35.664;139.738;2023-02-26T02:35:08;7.80;33.80
9414;DHT22;4746;35.664;139.738;2023-02-26T02:40:30;7.90;33.00
9414;DHT22;4746;35.664;139.738;2023-02-26T02:43:14;7.90;32.80
9414;DHT22;4746;35.664;139.738;2023-02-26T02:48:43;8.20;32.80
9414;DHT22;4746;35.664;139.738;2023-02-26T02:51:38;8.20;33.20
9414;DHT22;4746;35.664;139.738;2023-02-26T02:54:40;8.30;34.20
9414;DHT22;4746;35.664;139.738;2023-02-26T02:57:38;8.30;34.40
9414;DHT22;4746;35.664;139.738;2023-02-26T03:00:32;8.40;34.30
9414;DHT22;4746;35.664;139.738;2023-02-26T03:05:46;8.60;34.80
9414;DHT22;4746;35.664;139.738;2023-02-26T03:08:17;8.60;34.70
9414;DHT22;4746;35.664;139.738;2023-02-26T03:10:48;8.60;34.30
9414;DHT22;4746;35.664;139.738;2023-02-26T03:13:24;8.60;34.50
9414;DHT22;4746;35.664;139.738;2023-02-26T03:15:59;8.70;34.40
9414;DHT22;4746;35.664;139.738;2023-02-26T03:21:16;8.80;34.50
9414;DHT22;4746;35.664;139.738;2023-02-26T03:24:22;8.90;34.90
9414;DHT22;4746;35.664;139.738;2023-02-26T03:27:15;9.10;35.50
9414;DHT22;4746;35.664;139.738;2023-02-26T03:32:59;9.40;35.60
9414;DHT22;4746;35.664;139.738;2023-02-26T03:38:37;9.50;34.60
9414;DHT22;4746;35.664;139.738;2023-02-26T03:41:35;9.60;34.60
9414;DHT22;4746;35.664;139.738;2023-02-26T03:44:26;9.70;34.60
9414;DHT22;4746;35.664;139.738;2023-02-26T03:47:11;9.80;34.50
9414;DHT22;4746;35.664;139.738;2023-02-26T03:49:46;9.80;34.40
9414;DHT22;4746;35.664;139.738;2023-02-26T03:52:21;9.70;34.10
9414;DHT22;4746;35.664;139.738;2023-02-26T03:55:18;9.70;34.30
9414;DHT22;4746;35.664;139.738;2023-02-26T03:58:06;9.90;34.00
9414;DHT22;4746;35.664;139.738;2023-02-26T04:00:34;9.90;33.70
9414;DHT22;4746;35.664;139.738;2023-02-26T04:03:32;9.90;33.40
9414;DHT22;4746;35.664;139.738;2023-02-26T04:06:02;9.80;33.00
9414;DHT22;4746;35.664;139.738;2023-02-26T04:08:31;9.80;33.00
9414;DHT22;4746;35.664;139.738;2023-02-26T04:11:23;9.90;33.60
9414;DHT22;4746;35.664;139.738;2023-02-26T04:13:51;10.00;32.80
9414;DHT22;4746;35.664;139.738;2023-02-26T04:16:18;9.90;32.50
9414;DHT22;4746;35.664;139.738;2023-02-26T04:18:46;10.00;31.40
9414;DHT22;4746;35.664;139.738;2023-02-26T04:21:19;9.90;31.70
9414;DHT22;4746;35.664;139.738;2023-02-26T04:23:48;9.90;31.40
9414;DHT22;4746;35.664;139.738;2023-02-26T04:26:16;10.00;30.00
9414;DHT22;4746;35.664;139.738;2023-02-26T04:28:43;9.90;30.30
9414;DHT22;4746;35.664;139.738;2023-02-26T04:31:11;9.90;30.20
9414;DHT22;4746;35.664;139.738;2023-02-26T04:33:38;10.00;30.30
9414;DHT22;4746;35.664;139.738;2023-02-26T04:36:06;10.20;30.30
9414;DHT22;4746;35.664;139.738;2023-02-26T04:38:34;10.30;29.70
9414;DHT22;4746;35.664;139.738;2023-02-26T04:41:01;10.40;29.40
9414;DHT22;4746;35.664;139.738;2023-02-26T04:43:29;10.40;29.20
9414;DHT22;4746;35.664;139.738;2023-02-26T04:45:57;10.50;29.20
9414;DHT22;4746;35.664;139.738;2023-02-26T04:48:24;10.70;29.40
9414;DHT22;4746;35.664;139.738;2023-02-26T04:50:52;10.80;29.30
9414;DHT22;4746;35.664;139.738;2023-02-26T04:53:20;10.70;29.00
9414;DHT22;4746;35.664;139.738;2023-02-26T04:55:48;10.80;28.60
9414;DHT22;4746;35.664;139.738;2023-02-26T04:58:16;10.90;28.50
9414;DHT22;4746;35.664;139.738;2023-02-26T05:00:48;11.10;28.80
9414;DHT22;4746;35.664;139.738;2023-02-26T05:03:17;11.30;28.10
9414;DHT22;4746;35.664;139.738;2023-02-26T05:05:45;11.50;28.10
9414;DHT22;4746;35.664;139.738;2023-02-26T05:08:13;11.60;27.90
9414;DHT22;4746;35.664;139.738;2023-02-26T05:10:41;11.90;28.00
9414;DHT22;4746;35.664;139.738;2023-02-26T05:13:08;12.00;27.90
9414;DHT22;4746;35.664;139.738;2023-02-26T05:15:36;12.30;27.70
9414;DHT22;4746;35.664;139.738;2023-02-26T05:18:03;12.50;27.50
9414;DHT22;4746;35.664;139.738;2023-02-26T05:20:31;12.70;27.20
9414;DHT22;4746;35.664;139.738;2023-02-26T05:22:58;12.80;26.80
9414;DHT22;4746;35.664;139.738;2023-02-26T05:25:26;13.00;26.50
9414;DHT22;4746;35.664;139.738;2023-02-26T05:27:54;13.10;26.40
9414;DHT22;4746;35.664;139.738;2023-02-26T05:30:22;13.30;26.50
9414;DHT22;4746;35.664;139.738;2023-02-26T05:32:50;13.60;26.90
9414;DHT22;4746;35.664;139.738;2023-02-26T05:35:17;13.70;26.60
9414;DHT22;4746;35.664;139.738;2023-02-26T05:37:45;14.10;27.00
9414;DHT22;4746;35.664;139.738;2023-02-26T05:40:12;14.10;26.20
9414;DHT22;4746;35.664;139.738;2023-02-26T05:42:40;14.10;25.90
9414;DHT22;4746;35.664;139.738;2023-02-26T05:45:08;14.10;25.70
9414;DHT22;4746;35.664;139.738;2023-02-26T05:47:36;13.90;25.30
9414;DHT22;4746;35.664;139.738;2023-02-26T05:50:05;13.80;25.20
9414;DHT22;4746;35.664;139.738;2023-02-26T05:52:33;13.60;25.30
9414;DHT22;4746;35.664;139.738;2023-02-26T05:55:01;13.70;25.40
9414;DHT22;4746;35.664;139.738;2023-02-26T05:57:29;14.00;25.30
9414;DHT22;4746;35.664;139.738;2023-02-26T05:59:56;14.40;25.60
9414;DHT22;4746;35.664;139.738;2023-02-26T06:02:24;14.60;25.20
9414;DHT22;4746;35.664;139.738;2023-02-26T06:04:52;14.80;25.10
9414;DHT22;4746;35.664;139.738;2023-02-26T06:07:19;15.20;25.20
9414;DHT22;4746;35.664;139.738;2023-02-26T06:09:47;15.30;24.90
9414;DHT22;4746;35.664;139.738;2023-02-26T06:12:14;15.10;24.60
9414;DHT22;4746;35.664;139.738;2023-02-26T06:14:42;15.40;24.60
9414;DHT22;4746;35.664;139.738;2023-02-26T06:17:11;15.80;24.50
9414;DHT22;4746;35.664;139.738;2023-02-26T06:19:38;15.80;23.90
9414;DHT22;4746;35.664;139.738;2023-02-26T06:22:06;15.50;23.50
9414;DHT22;4746;35.664;139.738;2023-02-26T06:24:33;15.40;23.30
9414;DHT22;4746;35.664;139.738;2023-02-26T06:27:01;15.60;23.70
9414;DHT22;4746;35.664;139.738;2023-02-26T06:29:28;15.40;23.30
9414;DHT22;4746;35.664;139.738;2023-02-26T06:31:56;15.70;23.70
9414;DHT22;4746;35.664;139.738;2023-02-26T06:34:23;15.60;23.50
9414;DHT22;4746;35.664;139.738;2023-02-26T06:36:51;15.30;23.30
9414;DHT22;4746;35.664;139.738;2023-02-26T06:39:18;15.50;23.80
9414;DHT22;4746;35.664;139.738;2023-02-26T06:41:47;15.00;23.10
9414;DHT22;4746;35.664;139.738;2023-02-26T06:44:14;15.10;23.20
9414;DHT22;4746;35.664;139.738;2023-02-26T06:46:43;15.50;23.50
9414;DHT22;4746;35.664;139.738;2023-02-26T06:49:10;15.60;23.30
9414;DHT22;4746;35.664;139.738;2023-02-26T06:51:39;16.30;23.60
9414;DHT22;4746;35.664;139.738;2023-02-26T06:54:07;16.80;23.60
9414;DHT22;4746;35.664;139.738;2023-02-26T06:56:34;16.80;23.00
9414;DHT22;4746;35.664;139.738;2023-02-26T06:59:02;17.10;22.60
9414;DHT22;4746;35.664;139.738;2023-02-26T07:01:29;16.80;22.20
9414;DHT22;4746;35.664;139.738;2023-02-26T07:03:57;16.70;21.60
9414;DHT22;4746;35.664;139.738;2023-02-26T07:06:25;16.30;21.40
9414;DHT22;4746;35.664;139.738;2023-02-26T07:08:52;16.30;21.50
9414;DHT22;4746;35.664;139.738;2023-02-26T07:11:21;16.00;21.50
9414;DHT22;4746;35.664;139.738;2023-02-26T07:13:49;16.00;21.90
9414;DHT22;4746;35.664;139.738;2023-02-26T07:16:18;15.80;21.70
9414;DHT22;4746;35.664;139.738;2023-02-26T07:18:46;15.20;21.70
9414;DHT22;4746;35.664;139.738;2023-02-26T07:21:13;15.40;21.80
9414;DHT22;4746;35.664;139.738;2023-02-26T07:23:41;15.10;21.70
9414;DHT22;4746;35.664;139.738;2023-02-26T07:26:08;15.30;21.90
9414;DHT22;4746;35.664;139.738;2023-02-26T07:28:36;15.40;21.90
9414;DHT22;4746;35.664;139.738;2023-02-26T07:31:03;15.80;22.10
9414;DHT22;4746;35.664;139.738;2023-02-26T07:33:31;15.80;22.30
9414;DHT22;4746;35.664;139.738;2023-02-26T07:36:00;15.50;21.60
9414;DHT22;4746;35.664;139.738;2023-02-26T07:38:28;15.40;21.70
9414;DHT22;4746;35.664;139.738;2023-02-26T07:40:55;15.50;21.80
9414;DHT22;4746;35.664;139.738;2023-02-26T07:43:24;15.70;21.90
9414;DHT22;4746;35.664;139.738;2023-02-26T07:45:52;15.70;21.60
9414;DHT22;4746;35.664;139.738;2023-02-26T07:48:19;15.70;21.60
9414;DHT22;4746;35.664;139.738;2023-02-26T07:50:49;15.40;21.40
9414;DHT22;4746;35.664;139.738;2023-02-26T07:53:19;15.40;21.80
9414;DHT22;4746;35.664;139.738;2023-02-26T07:55:47;15.20;21.30
9414;DHT22;4746;35.664;139.738;2023-02-26T07:58:15;15.30;21.70
9414;DHT22;4746;35.664;139.738;2023-02-26T08:00:44;15.50;21.50
9414;DHT22;4746;35.664;139.738;2023-02-26T08:03:12;15.50;21.30
9414;DHT22;4746;35.664;139.738;2023-02-26T08:05:40;15.40;20.90
9414;DHT22;4746;35.664;139.738;2023-02-26T08:08:09;15.10;20.70
9414;DHT22;4746;35.664;139.738;2023-02-26T08:10:37;14.90;20.80
9414;DHT22;4746;35.664;139.738;2023-02-26T08:13:07;14.40;20.90
9414;DHT22;4746;35.664;139.738;2023-02-26T08:15:34;13.80;20.60
9414;DHT22;4746;35.664;139.738;2023-02-26T08:18:02;13.50;21.00
9414;DHT22;4746;35.664;139.738;2023-02-26T08:20:30;13.30;21.30
9414;DHT22;4746;35.664;139.738;2023-02-26T08:22:57;13.10;21.40
9414;DHT22;4746;35.664;139.738;2023-02-26T08:25:25;13.00;21.70
9414;DHT22;4746;35.664;139.738;2023-02-26T08:27:52;12.60;21.80
9414;DHT22;4746;35.664;139.738;2023-02-26T08:30:23;12.20;22.00
9414;DHT22;4746;35.664;139.738;2023-02-26T08:32:51;11.90;22.40
9414;DHT22;4746;35.664;139.738;2023-02-26T08:35:18;11.30;22.40
9414;DHT22;4746;35.664;139.738;2023-02-26T08:37:46;11.00;22.50
9414;DHT22;4746;35.664;139.738;2023-02-26T08:40:13;10.70;22.80
9414;DHT22;4746;35.664;139.738;2023-02-26T08:42:41;10.50;22.80
9414;DHT22;4746;35.664;139.738;2023-02-26T08:45:09;10.30;22.90
9414;DHT22;4746;35.664;139.738;2023-02-26T08:47:37;10.00;23.00
9414;DHT22;4746;35.664;139.738;2023-02-26T08:50:09;9.90;23.80
9414;DHT22;4746;35.664;139.738;2023-02-26T08:52:37;9.80;24.30
9414;DHT22;4746;35.664;139.738;2023-02-26T08:55:05;9.60;24.40
9414;DHT22;4746;35.664;139.738;2023-02-26T08:57:33;9.60;24.70
9414;DHT22;4746;35.664;139.738;2023-02-26T09:00:01;9.60;25.00
9414;DHT22;4746;35.664;139.738;2023-02-26T09:02:30;9.50;25.10
9414;DHT22;4746;35.664;139.738;2023-02-26T09:04:57;9.30;25.20
9414;DHT22;4746;35.664;139.738;2023-02-26T09:07:25;9.10;25.30
9414;DHT22;4746;35.664;139.738;2023-02-26T09:09:55;9.10;25.60
9414;DHT22;4746;35.664;139.738;2023-02-26T09:12:23;9.00;25.90
9414;DHT22;4746;35.664;139.738;2023-02-26T09:14:50;9.00;26.20
9414;DHT22;4746;35.664;139.738;2023-02-26T09:17:20;9.00;26.30
9414;DHT22;4746;35.664;139.738;2023-02-26T09:19:48;9.00;26.40
9414;DHT22;4746;35.664;139.738;2023-02-26T09:22:15;8.90;26.40
9414;DHT22;4746;35.664;139.738;2023-02-26T09:24:43;8.90;26.50
9414;DHT22;4746;35.664;139.738;2023-02-26T09:27:10;8.90;26.60
9414;DHT22;4746;35.664;139.738;2023-02-26T09:29:38;8.80;26.70
9414;DHT22;4746;35.664;139.738;2023-02-26T09:32:06;8.90;26.90
9414;DHT22;4746;35.664;139.738;2023-02-26T09:34:37;8.80;27.20
9414;DHT22;4746;35.664;139.738;2023-02-26T09:37:07;8.80;27.20
9414;DHT22;4746;35.664;139.738;2023-02-26T09:39:35;8.80;27.40
9414;DHT22;4746;35.664;139.738;2023-02-26T09:45:37;8.70;27.30
9414;DHT22;4746;35.664;139.738;2023-02-26T09:48:11;8.70;27.40
9414;DHT22;4746;35.664;139.738;2023-02-26T09:50:55;8.60;27.40
9414;DHT22;4746;35.664;139.738;2023-02-26T09:53:32;8.60;27.50
9414;DHT22;4746;35.664;139.738;2023-02-26T09:56:13;8.40;27.40
9414;DHT22;4746;35.664;139.738;2023-02-26T09:58:44;8.30;27.60
9414;DHT22;4746;35.664;139.738;2023-02-26T10:01:33;8.30;27.70
9414;DHT22;4746;35.664;139.738;2023-02-26T10:07:59;8.20;27.80
9414;DHT22;4746;35.664;139.738;2023-02-26T10:11:04;8.20;28.00
9414;DHT22;4746;35.664;139.738;2023-02-26T10:14:03;8.00;28.30
9414;DHT22;4746;35.664;139.738;2023-02-26T10:17:00;8.00;28.40
9414;DHT22;4746;35.664;139.738;2023-02-26T10:19:37;8.00;28.70
9414;DHT22;4746;35.664;139.738;2023-02-26T10:22:42;8.10;29.10
9414;DHT22;4746;35.664;139.738;2023-02-26T10:25:22;8.20;29.80
9414;DHT22;4746;35.664;139.738;2023-02-26T10:30:55;8.30;30.30
9414;DHT22;4746;35.664;139.738;2023-02-26T10:33:39;8.20;30.10
9414;DHT22;4746;35.664;139.738;2023-02-26T10:36:31;8.10;30.00
9414;DHT22;4746;35.664;139.738;2023-02-26T10:39:52;8.00;30.10
9414;DHT22;4746;35.664;139.738;2023-02-26T10:43:01;7.90;30.10
9414;DHT22;4746;35.664;139.738;2023-02-26T10:51:25;7.80;30.40
9414;DHT22;4746;35.664;139.738;2023-02-26T10:54:05;7.70;30.60
9414;DHT22;4746;35.664;139.738;2023-02-26T10:56:48;7.70;30.80
9414;DHT22;4746;35.664;139.738;2023-02-26T10:59:16;7.70;31.00
9414;DHT22;4746;35.664;139.738;2023-02-26T11:01:43;7.60;31.00
9414;DHT22;4746;35.664;139.738;2023-02-26T11:04:19;7.60;31.10
9414;DHT22;4746;35.664;139.738;2023-02-26T11:07:01;7.60;31.30
9414;DHT22;4746;35.664;139.738;2023-02-26T11:09:34;7.50;31.30
9414;DHT22;4746;35.664;139.738;2023-02-26T11:12:12;7.50;31.30
9414;DHT22;4746;35.664;139.738;2023-02-26T11:14:43;7.40;31.40
9414;DHT22;4746;35.664;139.738;2023-02-26T11:17:25;7.50;31.80
9414;DHT22;4746;35.664;139.738;2023-02-26T11:20:03;7.50;31.70
9414;DHT22;4746;35.664;139.738;2023-02-26T11:22:53;7.40;31.50
9414;DHT22;4746;35.664;139.738;2023-02-26T11:25:28;7.40;31.40
9414;DHT22;4746;35.664;139.738;2023-02-26T11:28:02;7.30;31.40
9414;DHT22;4746;35.664;139.738;2023-02-26T11:30:37;7.30;31.30
9414;DHT22;4746;35.664;139.738;2023-02-26T11:33:32;7.30;31.50
9414;DHT22;4746;35.664;139.738;2023-02-26T11:36:11;7.30;31.70
9414;DHT22;4746;35.664;139.738;2023-02-26T11:38:45;7.30;31.70
9414;DHT22;4746;35.664;139.738;2023-02-26T11:41:19;7.30;31.80
9414;DHT22;4746;35.664;139.738;2023-02-26T11:43:58;7.30;31.80
9414;DHT22;4746;35.664;139.738;2023-02-26T11:46:28;7.30;31.80
9414;DHT22;4746;35.664;139.738;2023-02-26T11:48:58;7.30;31.70
9414;DHT22;4746;35.664;139.738;2023-02-26T11:51:28;7.30;31.60
9414;DHT22;4746;35.664;139.738;2023-02-26T11:54:00;7.40;32.00
9414;DHT22;4746;35.664;139.738;2023-02-26T11:56:38;7.40;31.60
9414;DHT22;4746;35.664;139.738;2023-02-26T12:01:47;7.50;31.20
9414;DHT22;4746;35.664;139.738;2023-02-26T12:04:21;7.50;30.90
9414;DHT22;4746;35.664;139.738;2023-02-26T12:06:51;7.50;30.50
9414;DHT22;4746;35.664;139.738;2023-02-26T12:09:20;7.50;30.20
9414;DHT22;4746;35.664;139.738;2023-02-26T12:17:47;7.50;29.90
9414;DHT22;4746;35.664;139.738;2023-02-26T12:24:21;7.50;29.50
9414;DHT22;4746;35.664;139.738;2023-02-26T12:27:54;7.50;29.00
9414;DHT22;4746;35.664;139.738;2023-02-26T12:39:54;7.60;27.30
9414;DHT22;4746;35.664;139.738;2023-02-26T12:43:05;7.70;27.00
9414;DHT22;4746;35.664;139.738;2023-02-26T12:46:01;7.70;26.80
9414;DHT22;4746;35.664;139.738;2023-02-26T12:49:05;7.70;26.70
9414;DHT22;4746;35.664;139.738;2023-02-26T13:01:03;7.70;26.80
9414;DHT22;4746;35.664;139.738;2023-02-26T13:06:57;7.80;27.00
9414;DHT22;4746;35.664;139.738;2023-02-26T13:16:09;7.70;26.90
9414;DHT22;4746;35.664;139.738;2023-02-26T13:19:12;7.70;27.10
9414;DHT22;4746;35.664;139.738;2023-02-26T13:22:20;7.60;27.00
9414;DHT22;4746;35.664;139.738;2023-02-26T13:27:43;7.60;27.10
9414;DHT22;4746;35.664;139.738;2023-02-26T13:30:34;7.60;27.20
9414;DHT22;4746;35.664;139.738;2023-02-26T13:33:17;7.60;27.30
9414;DHT22;4746;35.664;139.738;2023-02-26T13:35:52;7.50;27.30
9414;DHT22;4746;35.664;139.738;2023-02-26T13:41:56;7.50;27.40
9414;DHT22;4746;35.664;139.738;2023-02-26T13:53:04;7.30;27.50
9414;DHT22;4746;35.664;139.738;2023-02-26T13:56:04;7.40;27.80
9414;DHT22;4746;35.664;139.738;2023-02-26T13:58:43;7.40;28.00
9414;DHT22;4746;35.664;139.738;2023-02-26T14:01:33;7.40;28.10
9414;DHT22;4746;35.664;139.738;2023-02-26T14:04:22;7.40;28.10
9414;DHT22;4746;35.664;139.738;2023-02-26T14:07:12;7.40;28.20
9414;DHT22;4746;35.664;139.738;2023-02-26T14:17:50;7.40;28.50
9414;DHT22;4746;35.664;139.738;2023-02-26T14:20:31;7.40;28.60
9414;DHT22;4746;35.664;139.738;2023-02-26T14:25:49;7.50;28.60
9414;DHT22;4746;35.664;139.738;2023-02-26T14:31:13;7.50;28.60
9414;DHT22;4746;35.664;139.738;2023-02-26T14:34:07;7.50;28.80
9414;DHT22;4746;35.664;139.738;2023-02-26T14:36:45;7.50;28.70
9414;DHT22;4746;35.664;139.738;2023-02-26T14:39:30;7.50;28.90
9414;DHT22;4746;35.664;139.738;2023-02-26T14:47:49;7.50;28.90
9414;DHT22;4746;35.664;139.738;2023-02-26T14:50:22;7.50;29.00
9414;DHT22;4746;35.664;139.738;2023-02-26T14:53:20;7.30;28.90
9414;DHT22;4746;35.664;139.738;2023-02-26T14:58:58;7.30;29.30
9414;DHT22;4746;35.664;139.738;2023-02-26T15:02:01;7.30;29.30
9414;DHT22;4746;35.664;139.738;2023-02-26T15:16:29;6.70;31.50
9414;DHT22;4746;35.664;139.738;2023-02-26T15:24:50;6.30;35.20
9414;DHT22;4746;35.664;139.738;2023-02-26T15:27:19;6.30;36.40
9414;DHT22;4746;35.664;139.738;2023-02-26T15:29:49;6.20;37.20
9414;DHT22;4746;35.664;139.738;2023-02-26T15:32:22;6.10;38.40
9414;DHT22;4746;35.664;139.738;2023-02-26T15:35:15;6.00;39.40
9414;DHT22;4746;35.664;139.738;2023-02-26T15:37:55;6.00;41.50
9414;DHT22;4746;35.664;139.738;2023-02-26T15:40:33;6.00;43.90
9414;DHT22;4746;35.664;139.738;2023-02-26T15:43:19;5.90;46.50
9414;DHT22;4746;35.664;139.738;2023-02-26T15:45:56;5.90;49.50
9414;DHT22;4746;35.664;139.738;2023-02-26T15:48:29;5.90;53.00
9414;DHT22;4746;35.664;139.738;2023-02-26T15:51:09;5.80;56.20
9414;DHT22;4746;35.664;139.738;2023-02-26T15:53:52;5.70;62.70
9414;DHT22;4746;35.664;139.738;2023-02-26T15:56:35;5.80;66.40
9414;DHT22;4746;35.664;139.738;2023-02-26T15:59:24;5.80;71.50
9414;DHT22;4746;35.664;139.738;2023-02-26T16:01:54;5.80;76.90
9414;DHT22;4746;35.664;139.738;2023-02-26T16:04:23;5.80;82.10
9414;DHT22;4746;35.664;139.738;2023-02-26T16:06:56;5.80;87.80
9414;DHT22;4746;35.664;139.738;2023-02-26T16:09:30;5.80;89.50
9414;DHT22;4746;35.664;139.738;2023-02-26T16:12:11;5.80;93.60
9414;DHT22;4746;35.664;139.738;2023-02-26T16:14:52;5.80;96.10
9414;DHT22;4746;35.664;139.738;2023-02-26T16:17:36;5.70;99.90
9414;DHT22;4746;35.664;139.738;2023-02-26T16:20:20;5.70;99.90
9414;DHT22;4746;35.664;139.738;2023-02-26T16:23:10;5.70;99.90
9414;DHT22;4746;35.664;139.738;2023-02-26T16:26:04;5.60;99.90
9414;DHT22;4746;35.664;139.738;2023-02-26T16:28:40;5.70;99.90
9414;DHT22;4746;35.664;139.738;2023-02-26T16:31:17;5.70;99.90
9414;DHT22;4746;35.664;139.738;2023-02-26T16:34:02;5.70;99.90
9414;DHT22;4746;35.664;139.738;2023-02-26T16:36:40;5.70;99.90
9414;DHT22;4746;35.664;139.738;2023-02-26T16:39:16;5.60;99.90
9414;DHT22;4746;35.664;139.738;2023-02-26T16:42:07;5.60;99.90
9414;DHT22;4746;35.664;139.738;2023-02-26T16:44:56;5.60;99.90
9414;DHT22;4746;35.664;139.738;2023-02-26T16:47:43;5.70;99.90
9414;DHT22;4746;35.664;139.738;2023-02-26T16:50:19;5.60;99.90
9414;DHT22;4746;35.664;139.738;2023-02-26T16:55:37;5.70;99.90
9414;DHT22;4746;35.664;139.738;2023-02-26T16:58:13;5.70;99.90
9414;DHT22;4746;35.664;139.738;2023-02-26T17:00:44;5.70;99.90
9414;DHT22;4746;35.664;139.738;2023-02-26T17:03:20;5.70;99.90
9414;DHT22;4746;35.664;139.738;2023-02-26T17:06:10;5.80;99.90
9414;DHT22;4746;35.664;139.738;2023-02-26T17:08:48;5.80;99.90
9414;DHT22;4746;35.664;139.738;2023-02-26T17:11:33;5.90;99.90
9414;DHT22;4746;35.664;139.738;2023-02-26T17:14:24;5.90;99.90
9414;DHT22;4746;35.664;139.738;2023-02-26T17:16:53;5.90;99.90
9414;DHT22;4746;35.664;139.738;2023-02-26T17:19:20;5.90;99.90
9414;DHT22;4746;35.664;139.738;2023-02-26T17:21:49;5.90;99.90
9414;DHT22;4746;35.664;139.738;2023-02-26T17:24:30;5.90;99.50
9414;DHT22;4746;35.664;139.738;2023-02-26T17:27:02;6.00;97.90
9414;DHT22;4746;35.664;139.738;2023-02-26T17:29:38;6.00;96.60
9414;DHT22;4746;35.664;139.738;2023-02-26T17:32:19;6.00;99.90
9414;DHT22;4746;35.664;139.738;2023-02-26T17:34:50;6.00;95.10
9414;DHT22;4746;35.664;139.738;2023-02-26T17:37:18;6.00;95.40
9414;DHT22;4746;35.664;139.738;2023-02-26T17:39:47;6.00;94.30
9414;DHT22;4746;35.664;139.738;2023-02-26T17:42:17;6.10;92.00
9414;DHT22;4746;35.664;139.738;2023-02-26T17:44:49;6.10;92.40
9414;DHT22;4746;35.664;139.738;2023-02-26T17:47:25;6.10;90.70
9414;DHT22;4746;35.664;139.738;2023-02-26T17:49:53;6.10;91.10
9414;DHT22;4746;35.664;139.738;2023-02-26T17:52:21;6.10;94.10
9414;DHT22;4746;35.664;139.738;2023-02-26T17:54:48;6.00;88.10
9414;DHT22;4746;35.664;139.738;2023-02-26T17:57:18;6.00;90.10
9414;DHT22;4746;35.664;139.738;2023-02-26T17:59:48;6.00;90.20
9414;DHT22;4746;35.664;139.738;2023-02-26T18:02:21;6.00;83.70
9414;DHT22;4746;35.664;139.738;2023-02-26T18:04:53;6.00;90.00
9414;DHT22;4746;35.664;139.738;2023-02-26T18:07:22;6.00;86.00
9414;DHT22;4746;35.664;139.738;2023-02-26T18:09:51;5.90;89.50
9414;DHT22;4746;35.664;139.738;2023-02-26T18:12:20;5.80;92.00
9414;DHT22;4746;35.664;139.738;2023-02-26T18:14:49;5.90;91.00
9414;DHT22;4746;35.664;139.738;2023-02-26T18:17:28;5.80;89.30
9414;DHT22;4746;35.664;139.738;2023-02-26T18:19:59;5.90;98.30
9414;DHT22;4746;35.664;139.738;2023-02-26T18:22:29;5.80;89.90
9414;DHT22;4746;35.664;139.738;2023-02-26T18:24:57;5.80;90.50
9414;DHT22;4746;35.664;139.738;2023-02-26T18:27:25;5.80;90.10
9414;DHT22;4746;35.664;139.738;2023-02-26T18:29:53;5.80;88.50
9414;DHT22;4746;35.664;139.738;2023-02-26T18:32:23;5.70;89.00
9414;DHT22;4746;35.664;139.738;2023-02-26T18:34:53;5.70;95.70
9414;DHT22;4746;35.664;139.738;2023-02-26T18:37:23;5.70;89.70
9414;DHT22;4746;35.664;139.738;2023-02-26T18:39:54;5.70;92.70
9414;DHT22;4746;35.664;139.738;2023-02-26T18:42:26;5.80;89.00
9414;DHT22;4746;35.664;139.738;2023-02-26T18:44:54;5.90;86.60
9414;DHT22;4746;35.664;139.738;2023-02-26T18:47:22;5.80;83.50
9414;DHT22;4746;35.664;139.738;2023-02-26T18:49:52;5.90;83.40
9414;DHT22;4746;35.664;139.738;2023-02-26T18:52:20;5.90;86.10
9414;DHT22;4746;35.664;139.738;2023-02-26T18:54:48;5.90;82.90
9414;DHT22;4746;35.664;139.738;2023-02-26T18:57:15;5.90;85.70
9414;DHT22;4746;35.664;139.738;2023-02-26T18:59:43;5.90;82.00
9414;DHT22;4746;35.664;139.738;2023-02-26T19:02:12;6.00;80.20
9414;DHT22;4746;35.664;139.738;2023-02-26T19:04:40;6.00;82.60
9414;DHT22;4746;35.664;139.738;2023-02-26T19:07:08;5.90;79.00
9414;DHT22;4746;35.664;139.738;2023-02-26T19:09:36;6.00;80.40
9414;DHT22;4746;35.664;139.738;2023-02-26T19:12:04;5.90;84.80
9414;DHT22;4746;35.664;139.738;2023-02-26T19:14:33;5.90;81.00
9414;DHT22;4746;35.664;139.738;2023-02-26T19:17:01;5.90;79.80